»·PEaware :: DFGCW KCVO-KDLS

DFGCW :: KCVO-KDLS

FLIGHT INFORMATION

Flight Status: Arrived
Operator: Unknown
More flights by this operator :: More flights under this callsign
Pilot: Klaus A. (15485)
Aircraft: PILATUS PC-12 EAGLE
(PC12)
More flights by this aircraft type
Origin: KCVO Corvallis Mun
United States
Destination: KDLS Columbia Gorge Regl/The Dalle
United States
More flights between these airports :: More routes between these airports
Route: +SHEDD2 SHEDD V536 DSD V25 KUKTE
File this flight plan on PilotEdge
Remarks: PBN / D2 DOF / 180819 REG / DFGCW PER / B RMK / TCAS SIMBRIEF
Altitude:
(Current/Filed)
17,000ft
Speed:
(Current/Filed)
274kts
Departed: 19-Aug-18 07:43 AM
Arrived: 19-Aug-18 08:42 AM
Distance/Time
Traveled:
112nm/0:59
Distance/Time
To Go:
Arrived

Flight Plot

Page will automatically refresh every two minutes.

Flight plan parsing failed; only flown route is shown


Map Options




Map Legend


Flown Route
Filed Route
Departure Airport
Arrival Airport
Navaid (VOR, NDB)
Fix

Horizontal Profiles

Position Reports

Time Latitude Longitude Heading Altitude Ground
Speed
19-Aug-18 07:22 44.502846 -123.286290 0 252ft 0kts
19-Aug-18 07:23 44.502846 -123.286290 112 252ft 0kts
19-Aug-18 07:24 44.502846 -123.286290 112 252ft 0kts
19-Aug-18 07:25 44.502846 -123.286290 112 252ft 0kts
19-Aug-18 07:26 44.502846 -123.286290 112 252ft 0kts
19-Aug-18 07:27 44.502846 -123.286290 112 252ft 0kts
19-Aug-18 07:28 44.502846 -123.286290 112 252ft 0kts
19-Aug-18 07:29 44.502846 -123.286290 112 252ft 0kts
19-Aug-18 07:30 44.502846 -123.286290 112 252ft 0kts
19-Aug-18 07:31 44.502846 -123.286290 112 252ft 0kts
19-Aug-18 07:32 44.502846 -123.286290 112 252ft 0kts
19-Aug-18 07:33 44.502846 -123.286290 112 252ft 0kts
19-Aug-18 07:34 44.502846 -123.286290 112 252ft 0kts
19-Aug-18 07:35 44.502210 -123.286073 214 251ft 16kts
19-Aug-18 07:36 44.501956 -123.289563 199 252ft 0kts
19-Aug-18 07:37 44.500039 -123.290113 185 252ft 23kts
19-Aug-18 07:38 44.494528 -123.291054 188 252ft 26kts
19-Aug-18 07:39 44.487556 -123.292554 298 251ft 7kts
19-Aug-18 07:40 44.487581 -123.292662 282 252ft 0kts
19-Aug-18 07:41 44.487581 -123.292662 282 252ft 0kts
19-Aug-18 07:42 44.487581 -123.292662 282 252ft 0kts
19-Aug-18 07:43 44.488232 -123.293658 4 251ft 17kts
19-Aug-18 07:44 44.515003 -123.283173 45 1194ft 158kts
19-Aug-18 07:45 44.498967 -123.238297 164 3274ft 171kts
19-Aug-18 07:46 44.481534 -123.182800 91 5212ft 182kts
19-Aug-18 07:47 44.476236 -123.111733 97 7068ft 187kts
19-Aug-18 07:48 44.468585 -123.039187 99 8739ft 191kts
19-Aug-18 07:49 44.459990 -122.965492 100 10260ft 193kts
19-Aug-18 07:50 44.450926 -122.890057 100 11709ft 200kts
19-Aug-18 07:51 44.441411 -122.812086 100 13188ft 207kts
19-Aug-18 07:52 44.433271 -122.746176 101 14301ft 213kts
19-Aug-18 07:53 44.423012 -122.663538 101 15543ft 219kts
19-Aug-18 07:54 44.412588 -122.578807 102 16671ft 224kts
19-Aug-18 07:55 44.400988 -122.488175 101 17009ft 255kts
19-Aug-18 07:56 44.388243 -122.387374 102 17002ft 271kts
19-Aug-18 07:57 44.375713 -122.284174 99 16996ft 277kts
19-Aug-18 07:58 44.364731 -122.177537 102 16981ft 277kts
19-Aug-18 07:59 44.351558 -122.071896 102 17016ft 277kts
19-Aug-18 08:00 44.338323 -121.966038 102 17025ft 277kts
19-Aug-18 08:01 44.325052 -121.860700 102 17005ft 278kts
19-Aug-18 08:02 44.311551 -121.754505 102 17003ft 278kts
19-Aug-18 08:03 44.298108 -121.647828 101 17004ft 279kts
19-Aug-18 08:04 44.286447 -121.559170 102 17004ft 279kts
19-Aug-18 08:05 44.272579 -121.452315 102 17004ft 280kts
19-Aug-18 08:06 44.257659 -121.328575 92 16989ft 282kts
19-Aug-18 08:07 44.303595 -121.284249 345 17029ft 269kts
19-Aug-18 08:08 44.378515 -121.288345 4 16997ft 277kts
19-Aug-18 08:09 44.467572 -121.273336 2 16976ft 277kts
19-Aug-18 08:10 44.531368 -121.264062 2 16953ft 277kts
19-Aug-18 08:11 44.607700 -121.253200 2 16954ft 277kts
19-Aug-18 08:12 44.684201 -121.244376 1 16944ft 276kts
19-Aug-18 08:13 44.760676 -121.234252 2 16943ft 276kts
19-Aug-18 08:14 44.837039 -121.223735 2 16941ft 276kts
19-Aug-18 08:15 44.913374 -121.213195 2 16941ft 276kts
19-Aug-18 08:16 44.989716 -121.202624 2 16942ft 276kts
19-Aug-18 08:17 45.066101 -121.192009 2 16942ft 276kts
19-Aug-18 08:18 45.140960 -121.181576 2 16939ft 276kts
19-Aug-18 08:19 45.214845 -121.171235 2 16881ft 240kts
19-Aug-18 08:20 45.275734 -121.162748 2 16902ft 216kts
19-Aug-18 08:21 45.335249 -121.153279 16 16922ft 219kts
19-Aug-18 08:22 45.389013 -121.108274 28 15849ft 226kts
19-Aug-18 08:23 45.443494 -121.063503 28 14756ft 226kts
19-Aug-18 08:24 45.497732 -121.018853 29 13661ft 225kts
19-Aug-18 08:25 45.552183 -120.973931 29 12467ft 227kts
19-Aug-18 08:26 45.606580 -120.928948 29 11275ft 226kts
19-Aug-18 08:27 45.660924 -120.883923 29 10078ft 225kts
19-Aug-18 08:28 45.711716 -120.833941 42 8885ft 223kts
19-Aug-18 08:29 45.756731 -120.773673 44 7691ft 220kts
19-Aug-18 08:30 45.793035 -120.706505 93 6456ft 220kts
19-Aug-18 08:31 45.748148 -120.697080 214 5322ft 201kts
19-Aug-18 08:32 45.709005 -120.738557 248 5275ft 149kts
19-Aug-18 08:33 45.699023 -120.782314 254 5299ft 105kts
19-Aug-18 08:34 45.690527 -120.823152 254 5298ft 108kts
19-Aug-18 08:35 45.681818 -120.864375 254 5297ft 108kts
19-Aug-18 08:36 45.673046 -120.906037 255 4502ft 106kts
19-Aug-18 08:37 45.664592 -120.946149 255 4043ft 110kts
19-Aug-18 08:38 45.656179 -120.985929 255 3811ft 106kts
19-Aug-18 08:39 45.647747 -121.025561 256 3339ft 100kts
19-Aug-18 08:40 45.639495 -121.064491 256 2830ft 104kts
19-Aug-18 08:41 45.631370 -121.102928 259 2054ft 96kts
19-Aug-18 08:42 45.621535 -121.138971 263 1032ft 98kts
19-Aug-18 08:43 45.620873 -121.174750 268 253ft 19kts
19-Aug-18 08:44 45.620174 -121.177046 125 252ft 0kts
19-Aug-18 08:45 45.619170 -121.174624 150 253ft 8kts
19-Aug-18 08:46 45.618812 -121.174452 85 252ft 0kts
19-Aug-18 08:47 45.618812 -121.174452 85 252ft 0kts
19-Aug-18 08:48 45.618812 -121.174452 85 252ft 0kts

Navigation Log

Ident Type
Flight plan parsing failed, navigation log unavailable